Time;durP1;ratioP1;P1;durP2;ratioP2;P2;SDS_P1;SDS_P2;PMS_P1;PMS_P2;Temp;Humidity;BMP_temperature;BMP_pressure;BME280_temperature;BME280_humidity;BME280_pressure;Samples;Min_cycle;Max_cycle;Signal;HPM_P1;HPM_P2
2023/09/28 00:03:51;;;;;;;;;;;;;;;;;;5007052;28;20049;-67
2023/09/28 00:09:19;;;;;;;;;;;;;;;;;;4997700;28;20033;-67
2023/09/28 00:11:45;;;;;;;16.17;6.97;;;;;;;;;;4997172;28;19909;-68
2023/09/28 00:17:12;;;;;;;15.43;7.43;;;;;;;;;;5511368;23;20082;-82
2023/09/28 00:22:41;;;;;;;16.20;7.28;;;;;;;;;;5016250;28;20428;-82
2023/09/28 00:25:10;;;;;;;16.45;7.90;;;;;;;;;;5015159;28;20465;-82
2023/09/28 00:30:27;;;;;;;12.40;7.47;;;;;;;;;;3278297;26;20050;-67
2023/09/28 00:35:55;;;;;;;15.70;7.97;;;;;;;;;;4977304;28;20021;-67
2023/09/28 00:41:23;;;;;;;15.65;8.18;;;;;;;;;;4996787;28;20045;-66
2023/09/28 00:43:48;;;;;;;14.30;7.40;;;;;;;;;;4996514;28;20022;-65
2023/09/28 00:57:23;;;;;;;17.92;7.97;;;;;;;;;;1366743;26;20065;-83
2023/09/28 01:02:51;;;;;;;16.45;7.30;;;;;;;;;;4993122;28;20089;-83
2023/09/28 01:08:22;;;;;;;14.65;7.47;;;;;;;;;;4996032;28;20124;-82
2023/09/28 01:10:47;;;;;;;16.65;8.75;;;;;;;;;;4994839;28;20022;-81
2023/09/28 01:16:15;;;;;;;12.68;6.57;;;;;;;;;;4995852;28;20025;-82
2023/09/28 01:21:44;;;;;;;;;;;;;;;;;;5048247;23;20061;-88
2023/09/28 01:27:13;;;;;;;17.08;7.63;;;;;;;;;;4996199;28;20069;-87
2023/09/28 01:30:16;;;;;;;13.63;6.93;;;;;;;;;;4996336;28;20029;-88
2023/09/28 01:35:26;;;;;;;13.23;7.25;;;;;;;;;;5545175;23;20112;-67
2023/09/28 01:40:54;;;;;;;17.80;8.93;;;;;;;;;;5015239;28;20060;-65
2023/09/28 01:43:19;;;;;;;15.70;8.25;;;;;;;;;;5014571;28;20065;-66
2023/09/28 01:54:04;;;;;;;;;;;;;;;;;;4994540;28;20045;-66
2023/09/28 01:56:30;;;;;;;14.00;7.72;;;;;;;;;;4995194;28;19910;-66
2023/09/28 02:01:58;;;;;;;20.00;8.43;;;;;;;;;;4975793;28;20033;-66
2023/09/28 02:07:28;;;;;;;;;;;;;;;;;;4976117;28;20546;-67
2023/09/28 02:09:53;;;;;;;12.45;7.38;;;;;;;;;;4990774;28;19964;-67
2023/09/28 02:15:17;;;;;;;16.77;7.60;;;;;;;;;;5326521;23;20058;-87
2023/09/28 02:22:54;;;;;;;17.13;7.28;;;;;;;;;;4974143;28;20051;-66
2023/09/28 02:33:52;;;;;;;17.13;8.77;;;;;;;;;;5427898;23;20156;-83
2023/09/28 02:48:04;;;;;;;12.30;7.53;;;;;;;;;;5013047;28;20521;-88
2023/09/28 02:53:32;;;;;;;15.00;7.90;;;;;;;;;;5014138;28;20398;-87
2023/09/28 03:01:35;;;;;;;13.90;7.63;;;;;;;;;;4782883;26;20089;-67
2023/09/28 03:07:03;;;;;;;17.23;8.70;;;;;;;;;;4994203;28;20287;-67
2023/09/28 03:12:31;;;;;;;15.93;8.93;;;;;;;;;;5541261;23;20365;-83
2023/09/28 03:14:56;;;;;;;17.60;8.98;;;;;;;;;;4992164;28;20027;-83
2023/09/28 03:20:25;;;;;;;17.83;9.73;;;;;;;;;;4992344;28;20030;-83
2023/09/28 03:25:55;;;;;;;13.85;8.95;;;;;;;;;;4993584;28;20025;-83
2023/09/28 03:28:20;;;;;;;20.17;8.40;;;;;;;;;;4992667;28;20026;-83
2023/09/28 03:33:48;;;;;;;15.60;8.65;;;;;;;;;;4993735;28;20287;-83
2023/09/28 03:39:16;;;;;;;;;;;;;;;;;;5487801;23;20069;-67
2023/09/28 03:41:41;;;;;;;15.43;8.27;;;;;;;;;;4992638;28;20026;-66
2023/09/28 03:47:10;;;;;;;12.95;6.97;;;;;;;;;;4993556;28;20017;-65
2023/09/28 03:52:38;;;;;;;11.25;6.95;;;;;;;;;;4993686;28;20042;-65
2023/09/28 03:55:04;;;;;;;13.80;8.25;;;;;;;;;;4993816;28;20413;-66
2023/09/28 04:05:45;;;;;;;;;;;;;;;;;;4994178;28;20018;-65
2023/09/28 04:08:10;;;;;;;11.02;7.25;;;;;;;;;;4993399;28;19905;-65
2023/09/28 04:13:38;;;;;;;19.15;8.80;;;;;;;;;;4993405;28;20037;-65
2023/09/28 04:19:06;;;;;;;14.68;8.23;;;;;;;;;;4973026;28;20029;-65
2023/09/28 04:24:33;;;;;;;14.15;8.05;;;;;;;;;;4963167;28;20723;-66
2023/09/28 04:26:59;;;;;;;11.30;7.53;;;;;;;;;;4989008;28;20019;-68
2023/09/28 04:32:27;;;;;;;12.38;8.50;;;;;;;;;;4995053;28;20112;-66
2023/09/28 04:37:55;;;;;;;14.60;8.80;;;;;;;;;;4995645;28;20025;-67
2023/09/28 04:40:24;;;;;;;19.37;9.40;;;;;;;;;;4995848;28;20015;-67
2023/09/28 04:45:52;;;;;;;12.52;7.95;;;;;;;;;;4996688;28;20117;-68
2023/09/28 04:51:20;;;;;;;;;;;;;;;;;;5575496;23;20135;-82
2023/09/28 04:59:23;;;;;;;18.88;7.97;;;;;;;;;;3275314;26;20068;-67
2023/09/28 05:04:50;;;;;;;19.95;7.75;;;;;;;;;;4996254;28;20029;-67
2023/09/28 05:10:18;;;;;;;19.15;8.00;;;;;;;;;;4996081;28;20500;-67
2023/09/28 05:12:43;;;;;;;11.13;7.50;;;;;;;;;;4996124;28;20030;-67
2023/09/28 05:24:28;;;;;;;17.73;8.05;;;;;;;;;;5015135;28;20022;-65
2023/09/28 05:29:56;;;;;;;12.52;7.30;;;;;;;;;;5015595;28;20040;-66
2023/09/28 05:32:21;;;;;;;13.13;7.67;;;;;;;;;;5015116;28;20120;-65
2023/09/28 05:37:49;;;;;;;;;;;;;;;;;;5026070;23;20060;-82
2023/09/28 05:43:17;;;;;;;16.73;7.53;;;;;;;;;;5015352;28;20028;-80
2023/09/28 05:45:42;;;;;;;16.07;8.20;;;;;;;;;;5013700;28;20014;-82
2023/09/28 05:51:10;;;;;;;;;;;;;;;;;;5015227;28;20238;-82
2023/09/28 05:56:38;;;;;;;12.40;7.07;;;;;;;;;;5015072;28;20075;-82
2023/09/28 05:59:04;;;;;;;11.98;7.68;;;;;;;;;;5013457;28;20018;-80
2023/09/28 06:04:33;;;;;;;;;;;;;;;;;;5026791;23;20060;-68
2023/09/28 06:10:03;;;;;;;;;;;;;;;;;;5015249;28;20492;-67
2023/09/28 06:12:29;;;;;;;13.90;6.85;;;;;;;;;;5014430;28;19913;-65
2023/09/28 06:17:56;;;;;;;11.75;7.03;;;;;;;;;;5014797;28;20087;-65
2023/09/28 06:23:24;;;;;;;9.80;6.63;;;;;;;;;;5014419;28;20454;-68
2023/09/28 06:25:49;;;;;;;14.60;6.47;;;;;;;;;;5014201;28;20049;-65
2023/09/28 06:31:19;;;;;;;13.32;6.93;;;;;;;;;;5014380;28;20528;-65
2023/09/28 06:36:46;;;;;;;10.63;6.63;;;;;;;;;;5014448;28;20109;-69
2023/09/28 06:39:12;;;;;;;14.37;6.20;;;;;;;;;;5014088;28;20062;-65
2023/09/28 06:44:40;;;;;;;22.83;8.93;;;;;;;;;;5014133;28;20120;-65
2023/09/28 06:50:09;;;;;;;11.95;6.18;;;;;;;;;;5013290;28;20444;-68
2023/09/28 06:52:34;;;;;;;18.70;7.20;;;;;;;;;;5014066;28;20029;-65
2023/09/28 06:58:06;;;;;;;;;;;;;;;;;;5014284;28;20119;-65
2023/09/28 07:06:24;;;;;;;14.40;5.43;;;;;;;;;;5010433;28;20288;-69
2023/09/28 07:08:49;;;;;;;14.15;6.00;;;;;;;;;;5013831;28;20101;-70
2023/09/28 07:11:15;;;;;;;13.83;6.17;;;;;;;;;;5013595;28;20093;-69
2023/09/28 07:13:40;;;;;;;10.27;6.40;;;;;;;;;;5013467;28;20290;-69
2023/09/28 07:16:07;;;;;;;13.45;6.70;;;;;;;;;;5013535;28;20774;-69
2023/09/28 07:18:33;;;;;;;11.80;5.88;;;;;;;;;;5013517;28;20042;-70
2023/09/28 07:20:58;;;;;;;12.43;5.30;;;;;;;;;;5013455;28;20053;-70
2023/09/28 07:23:23;;;;;;;11.77;5.30;;;;;;;;;;5013488;28;20038;-70
2023/09/28 07:25:50;;;;;;;10.07;5.50;;;;;;;;;;5013699;28;20030;-70
2023/09/28 07:28:16;;;;;;;8.43;5.00;;;;;;;;;;5013691;28;20049;-70
2023/09/28 07:30:41;;;;;;;14.43;5.67;;;;;;;;;;5013408;28;20451;-70
2023/09/28 07:33:07;;;;;;;10.23;5.33;;;;;;;;;;5013320;28;20104;-70
2023/09/28 07:35:32;;;;;;;14.82;5.05;;;;;;;;;;5013628;28;20022;-70
2023/09/28 07:37:57;;;;;;;14.07;5.80;;;;;;;;;;5013367;28;20501;-71
2023/09/28 07:40:24;;;;;;;11.23;6.35;;;;;;;;;;5013616;28;20032;-70
2023/09/28 07:42:50;;;;;;;17.08;6.72;;;;;;;;;;5013340;28;20022;-70
2023/09/28 07:45:15;;;;;;;14.80;6.75;;;;;;;;;;5013260;28;20022;-70
2023/09/28 07:47:40;;;;;;;20.73;7.27;;;;;;;;;;5013216;28;20022;-70
2023/09/28 07:50:06;;;;;;;16.03;6.00;;;;;;;;;;5013255;28;20014;-70
2023/09/28 07:52:31;;;;;;;14.02;6.13;;;;;;;;;;5013194;28;20263;-70
2023/09/28 07:54:56;;;;;;;18.33;5.53;;;;;;;;;;5013277;28;20014;-71
2023/09/28 07:57:22;;;;;;;14.03;6.23;;;;;;;;;;5011861;28;20022;-71
2023/09/28 07:59:47;;;;;;;17.42;6.13;;;;;;;;;;5013447;28;20255;-70
2023/09/28 08:02:12;;;;;;;11.30;5.65;;;;;;;;;;5015152;28;20018;-71
2023/09/28 08:04:39;;;;;;;15.23;5.93;;;;;;;;;;5016760;28;20104;-70
2023/09/28 08:07:04;;;;;;;13.20;5.10;;;;;;;;;;5017117;28;20427;-71
2023/09/28 08:09:30;;;;;;;15.73;5.13;;;;;;;;;;5016802;28;20097;-71
2023/09/28 08:11:55;;;;;;;10.32;4.38;;;;;;;;;;5016724;28;20251;-71
2023/09/28 08:14:21;;;;;;;9.75;4.15;;;;;;;;;;5016972;28;20057;-70
2023/09/28 08:16:46;;;;;;;10.80;4.47;;;;;;;;;;5016976;28;20017;-70
2023/09/28 08:19:12;;;;;;;8.83;3.87;;;;;;;;;;5016592;28;20465;-71
2023/09/28 08:21:38;;;;;;;9.52;4.22;;;;;;;;;;5016580;28;20290;-70
2023/09/28 08:24:07;;;;;;;11.02;4.60;;;;;;;;;;5016800;28;20041;-70
2023/09/28 08:26:33;;;;;;;10.63;4.43;;;;;;;;;;5016744;28;20029;-71
2023/09/28 08:28:59;;;;;;;9.27;3.92;;;;;;;;;;5016725;28;20026;-70
2023/09/28 08:31:24;;;;;;;8.50;4.20;;;;;;;;;;5016702;28;20488;-71
2023/09/28 08:33:49;;;;;;;8.60;4.40;;;;;;;;;;5016275;28;20467;-70
2023/09/28 08:36:15;;;;;;;8.97;3.83;;;;;;;;;;5016453;28;20022;-71
2023/09/28 08:38:40;;;;;;;14.80;4.35;;;;;;;;;;5016258;28;20489;-71
2023/09/28 08:41:06;;;;;;;8.17;3.57;;;;;;;;;;5016262;28;20010;-71
2023/09/28 08:43:35;;;;;;;7.78;3.78;;;;;;;;;;5016161;28;20105;-71
2023/09/28 08:46:02;;;;;;;8.63;3.60;;;;;;;;;;5016143;28;20477;-71
2023/09/28 08:48:27;;;;;;;9.73;3.67;;;;;;;;;;5016311;28;20022;-71
2023/09/28 08:50:55;;;;;;;6.90;3.23;;;;;;;;;;5016096;28;20572;-71
2023/09/28 08:53:21;;;;;;;13.13;4.15;;;;;;;;;;5015971;28;20824;-71
2023/09/28 08:55:47;;;;;;;7.35;3.30;;;;;;;;;;5016222;28;20473;-71
2023/09/28 08:58:13;;;;;;;7.50;3.60;;;;;;;;;;5016076;28;20106;-71
2023/09/28 09:00:39;;;;;;;8.73;3.35;;;;;;;;;;5015749;28;20022;-71
2023/09/28 09:03:06;;;;;;;7.07;3.58;;;;;;;;;;5016061;28;20022;-71
2023/09/28 09:05:31;;;;;;;6.82;3.60;;;;;;;;;;5015735;28;20061;-71
2023/09/28 09:07:58;;;;;;;7.15;3.25;;;;;;;;;;5015972;28;20025;-71
2023/09/28 09:10:26;;;;;;;10.77;3.25;;;;;;;;;;5015715;28;20022;-70
2023/09/28 09:12:52;;;;;;;6.53;3.35;;;;;;;;;;5015211;28;20473;-71
2023/09/28 09:15:17;;;;;;;6.38;3.60;;;;;;;;;;5015436;28;20096;-71
2023/09/28 09:17:43;;;;;;;10.32;3.90;;;;;;;;;;5015507;28;20022;-71
2023/09/28 09:20:09;;;;;;;8.43;3.78;;;;;;;;;;5015724;28;20032;-71
2023/09/28 09:22:35;;;;;;;6.18;2.92;;;;;;;;;;5015465;28;20448;-71
2023/09/28 09:25:00;;;;;;;5.45;3.10;;;;;;;;;;5015647;28;20540;-71
2023/09/28 09:27:29;;;;;;;10.13;2.90;;;;;;;;;;5015693;28;20048;-66
2023/09/28 09:29:58;;;;;;;7.70;3.17;;;;;;;;;;5015535;28;20256;-65
2023/09/28 09:32:24;;;;;;;7.28;3.28;;;;;;;;;;5015409;28;20025;-66
2023/09/28 09:34:50;;;;;;;21.35;3.20;;;;;;;;;;5015132;28;20014;-66
2023/09/28 09:37:16;;;;;;;7.55;3.22;;;;;;;;;;5015432;28;20101;-65
2023/09/28 09:39:41;;;;;;;4.90;2.90;;;;;;;;;;5015109;28;20529;-66
2023/09/28 09:42:08;;;;;;;13.27;3.40;;;;;;;;;;5015085;28;20612;-66
2023/09/28 09:44:34;;;;;;;6.93;2.88;;;;;;;;;;5015314;28;20580;-66
2023/09/28 09:47:00;;;;;;;5.45;2.95;;;;;;;;;;5014951;28;20029;-65
2023/09/28 09:49:26;;;;;;;4.47;2.70;;;;;;;;;;5015212;28;20029;-66
2023/09/28 09:51:51;;;;;;;6.70;2.72;;;;;;;;;;5014912;28;20029;-66
2023/09/28 09:54:17;;;;;;;4.97;3.00;;;;;;;;;;5014872;28;20026;-66
2023/09/28 09:56:49;;;;;;;8.13;2.90;;;;;;;;;;5015006;28;20021;-66
2023/09/28 09:59:17;;;;;;;;;;;;;;;;;;5015486;28;20017;-66
2023/09/28 10:01:52;;;;;;;6.63;2.72;;;;;;;;;;5014721;28;20379;-66
2023/09/28 10:04:21;;;;;;;4.85;2.65;;;;;;;;;;5014706;28;20026;-66
2023/09/28 10:06:47;;;;;;;7.25;3.00;;;;;;;;;;5014940;28;20104;-66
2023/09/28 10:09:14;;;;;;;8.20;2.65;;;;;;;;;;5014596;28;20409;-66
2023/09/28 10:11:39;;;;;;;5.78;2.92;;;;;;;;;;5014745;28;20476;-66
2023/09/28 10:14:05;;;;;;;10.00;3.25;;;;;;;;;;5014674;28;20053;-66
2023/09/28 10:16:34;;;;;;;5.72;3.33;;;;;;;;;;5014455;28;20014;-66
2023/09/28 10:18:59;;;;;;;7.22;3.13;;;;;;;;;;5014701;28;20071;-66
2023/09/28 10:21:25;;;;;;;8.73;3.03;;;;;;;;;;5014365;28;20022;-66
2023/09/28 10:23:54;;;;;;;10.40;3.10;;;;;;;;;;5014590;28;20034;-66
2023/09/28 10:26:19;;;;;;;9.85;3.33;;;;;;;;;;5014221;28;20021;-66
2023/09/28 10:29:01;;;;;;;7.53;2.70;;;;;;;;;;5014396;28;20024;-66
2023/09/28 10:31:28;;;;;;;6.10;3.17;;;;;;;;;;5014158;28;20252;-65
2023/09/28 10:34:19;;;;;;;7.03;3.08;;;;;;;;;;5014366;28;20029;-66
2023/09/28 10:37:04;;;;;;;5.00;2.80;;;;;;;;;;5003000;28;20549;-70
2023/09/28 10:39:31;;;;;;;6.28;2.95;;;;;;;;;;5013918;28;20022;-70
2023/09/28 10:42:03;;;;;;;5.32;2.97;;;;;;;;;;5014285;28;20018;-70
2023/09/28 10:44:31;;;;;;;5.60;3.03;;;;;;;;;;5013969;28;20022;-70
2023/09/28 10:46:57;;;;;;;6.15;3.15;;;;;;;;;;5013896;28;20022;-70
2023/09/28 10:49:23;;;;;;;8.50;2.78;;;;;;;;;;5013899;28;20026;-70
2023/09/28 10:51:48;;;;;;;7.32;3.03;;;;;;;;;;5013905;28;20018;-70
2023/09/28 10:54:15;;;;;;;5.82;2.85;;;;;;;;;;5013996;28;20069;-70
2023/09/28 10:56:40;;;;;;;7.07;2.60;;;;;;;;;;5014035;28;20068;-70
2023/09/28 10:59:06;;;;;;;5.55;2.95;;;;;;;;;;5013930;28;20415;-69
2023/09/28 11:01:31;;;;;;;5.25;3.08;;;;;;;;;;5013740;28;20081;-69
2023/09/28 11:03:57;;;;;;;6.10;2.78;;;;;;;;;;5013742;28;20362;-69
2023/09/28 11:06:23;;;;;;;6.45;2.80;;;;;;;;;;5013513;28;20050;-69
2023/09/28 11:08:49;;;;;;;7.38;3.00;;;;;;;;;;5013678;28;20105;-69
2023/09/28 11:11:17;;;;;;;7.43;2.90;;;;;;;;;;5013920;28;20025;-69
2023/09/28 11:13:43;;;;;;;6.05;3.10;;;;;;;;;;5013462;28;20026;-70
2023/09/28 11:16:09;;;;;;;7.88;3.28;;;;;;;;;;5013608;28;20057;-69
2023/09/28 11:18:36;;;;;;;6.55;3.42;;;;;;;;;;5013807;28;20030;-70
2023/09/28 11:21:03;;;;;;;7.60;2.95;;;;;;;;;;5013539;28;20382;-70
2023/09/28 11:23:28;;;;;;;6.38;2.60;;;;;;;;;;5013462;28;20302;-70
2023/09/28 11:25:53;;;;;;;10.23;3.03;;;;;;;;;;5013464;28;20099;-70
2023/09/28 11:28:19;;;;;;;6.57;2.85;;;;;;;;;;5013713;28;20243;-70
2023/09/28 11:30:44;;;;;;;5.75;2.85;;;;;;;;;;5013492;28;20032;-70
2023/09/28 11:33:10;;;;;;;5.90;2.67;;;;;;;;;;5013592;28;20022;-69
2023/09/28 11:35:38;;;;;;;5.30;3.05;;;;;;;;;;5013491;28;20029;-70
2023/09/28 11:38:09;;;;;;;5.22;3.00;;;;;;;;;;5017010;28;20072;-70
2023/09/28 11:40:35;;;;;;;6.95;3.30;;;;;;;;;;5017369;28;20014;-70
2023/09/28 11:43:00;;;;;;;6.05;2.92;;;;;;;;;;5017344;28;20022;-70
2023/09/28 11:45:29;;;;;;;10.07;3.03;;;;;;;;;;5017271;28;20389;-69
2023/09/28 11:47:54;;;;;;;5.07;3.10;;;;;;;;;;5017550;28;20030;-66
2023/09/28 11:50:21;;;;;;;6.13;3.05;;;;;;;;;;5017198;28;20018;-66
2023/09/28 11:52:47;;;;;;;4.50;2.63;;;;;;;;;;5017044;28;20109;-66
2023/09/28 11:55:14;;;;;;;6.72;3.05;;;;;;;;;;5017324;28;20013;-65
2023/09/28 11:57:41;;;;;;;7.90;3.08;;;;;;;;;;5017224;28;20026;-66
2023/09/28 12:00:06;;;;;;;5.25;2.55;;;;;;;;;;5017009;28;20026;-66
2023/09/28 12:02:32;;;;;;;6.15;3.10;;;;;;;;;;5016883;28;20033;-66
2023/09/28 12:04:57;;;;;;;6.90;2.90;;;;;;;;;;5016985;28;20050;-66
2023/09/28 12:07:23;;;;;;;3.75;2.28;;;;;;;;;;5017122;28;20393;-66
2023/09/28 12:09:48;;;;;;;8.80;2.78;;;;;;;;;;5016799;28;20494;-66
2023/09/28 12:12:13;;;;;;;5.30;3.17;;;;;;;;;;5016684;28;20420;-66
2023/09/28 12:14:38;;;;;;;5.53;3.15;;;;;;;;;;5016666;28;20021;-66
2023/09/28 12:17:04;;;;;;;5.63;2.95;;;;;;;;;;5016977;28;20073;-66
2023/09/28 12:19:31;;;;;;;7.67;2.87;;;;;;;;;;5016677;28;20026;-66
2023/09/28 12:21:58;;;;;;;7.13;3.10;;;;;;;;;;5016669;28;20105;-66
2023/09/28 12:24:23;;;;;;;6.30;2.92;;;;;;;;;;5016762;28;20529;-66
2023/09/28 12:26:49;;;;;;;7.07;3.00;;;;;;;;;;5016565;28;20063;-66
2023/09/28 12:29:14;;;;;;;4.70;2.83;;;;;;;;;;5016543;28;20029;-66
2023/09/28 12:31:39;;;;;;;5.27;2.80;;;;;;;;;;5016423;28;20420;-66
2023/09/28 12:34:05;;;;;;;4.10;2.73;;;;;;;;;;5016563;28;20026;-66
2023/09/28 12:36:32;;;;;;;10.70;2.65;;;;;;;;;;5016276;28;20018;-66
2023/09/28 12:38:57;;;;;;;10.65;3.03;;;;;;;;;;5016214;28;20029;-66
2023/09/28 12:41:23;;;;;;;6.00;3.10;;;;;;;;;;5016286;28;20072;-66
2023/09/28 12:43:48;;;;;;;9.20;3.03;;;;;;;;;;5016507;28;20116;-66
2023/09/28 12:46:14;;;;;;;5.70;2.90;;;;;;;;;;5016131;28;20028;-66
2023/09/28 12:48:41;;;;;;;5.70;2.45;;;;;;;;;;5015166;28;20481;-66
2023/09/28 12:51:06;;;;;;;3.97;2.47;;;;;;;;;;5016323;28;20164;-66
2023/09/28 12:53:33;;;;;;;6.20;3.03;;;;;;;;;;5016188;28;20109;-66
2023/09/28 12:55:58;;;;;;;5.47;3.05;;;;;;;;;;5016244;28;20104;-66
2023/09/28 12:58:24;;;;;;;7.80;2.70;;;;;;;;;;5015969;28;20050;-66
2023/09/28 13:00:49;;;;;;;5.13;3.05;;;;;;;;;;5015883;28;20054;-66
2023/09/28 13:03:14;;;;;;;8.80;2.93;;;;;;;;;;5016119;28;20058;-66
2023/09/28 13:05:41;;;;;;;4.57;2.63;;;;;;;;;;5015628;28;20278;-66
2023/09/28 13:08:07;;;;;;;5.68;2.50;;;;;;;;;;5016015;28;20473;-66
2023/09/28 13:10:34;;;;;;;10.25;2.83;;;;;;;;;;5015706;28;20124;-66
2023/09/28 13:13:00;;;;;;;5.72;3.03;;;;;;;;;;5015556;28;20022;-66
2023/09/28 13:15:25;;;;;;;5.88;2.80;;;;;;;;;;5015869;28;20017;-66
2023/09/28 13:17:51;;;;;;;6.80;3.08;;;;;;;;;;5015497;28;20041;-66
2023/09/28 13:20:52;;;;;;;10.18;2.95;;;;;;;;;;5015738;28;20096;-66
2023/09/28 13:23:07;;;;;;;5.78;2.30;;;;;;;;;;5012566;28;20034;-66
2023/09/28 13:25:33;;;;;;;5.80;2.93;;;;;;;;;;5015433;28;20101;-66
2023/09/28 13:27:58;;;;;;;5.60;2.83;;;;;;;;;;5015607;28;20258;-66
2023/09/28 13:30:24;;;;;;;7.13;2.72;;;;;;;;;;5015347;28;20051;-66
2023/09/28 13:32:52;;;;;;;4.95;3.03;;;;;;;;;;5015185;28;20081;-66
2023/09/28 13:35:19;;;;;;;6.22;2.85;;;;;;;;;;5015344;28;20022;-66
2023/09/28 13:37:44;;;;;;;7.38;2.80;;;;;;;;;;5015505;28;20385;-66
2023/09/28 13:40:26;;;;;;;9.15;2.50;;;;;;;;;;5015446;28;20021;-66
2023/09/28 13:42:53;;;;;;;4.65;2.78;;;;;;;;;;5015054;28;20061;-66
2023/09/28 13:45:18;;;;;;;8.90;2.83;;;;;;;;;;5015311;28;20436;-66
2023/09/28 13:47:44;;;;;;;9.50;2.90;;;;;;;;;;5014988;28;20100;-66
2023/09/28 13:50:10;;;;;;;6.22;2.80;;;;;;;;;;5015195;28;20025;-66
2023/09/28 13:52:35;;;;;;;5.22;2.67;;;;;;;;;;5014897;28;20373;-66
2023/09/28 13:55:00;;;;;;;4.85;2.35;;;;;;;;;;5014787;28;20105;-66
2023/09/28 13:57:26;;;;;;;5.73;2.90;;;;;;;;;;5014705;28;20032;-66
2023/09/28 13:59:54;;;;;;;8.23;2.97;;;;;;;;;;5014481;28;20022;-66
2023/09/28 14:02:25;;;;;;;6.70;2.95;;;;;;;;;;5014950;28;20026;-67
2023/09/28 14:04:51;;;;;;;7.50;2.80;;;;;;;;;;5014473;28;20045;-66
2023/09/28 14:07:16;;;;;;;5.77;2.90;;;;;;;;;;5014773;28;20108;-69
2023/09/28 14:09:41;;;;;;;8.07;2.90;;;;;;;;;;5014821;28;20044;-70
2023/09/28 14:12:11;;;;;;;7.75;2.90;;;;;;;;;;5014429;28;20049;-69
2023/09/28 14:14:37;;;;;;;11.10;3.40;;;;;;;;;;5014769;28;20022;-69
2023/09/28 14:17:04;;;;;;;7.10;3.10;;;;;;;;;;5014729;28;20029;-69
2023/09/28 14:19:29;;;;;;;5.72;3.00;;;;;;;;;;5014677;28;20022;-69
2023/09/28 14:21:54;;;;;;;6.47;2.70;;;;;;;;;;5014353;28;20470;-69
2023/09/28 14:24:19;;;;;;;6.63;2.83;;;;;;;;;;5014593;28;20026;-69
2023/09/28 14:26:45;;;;;;;7.00;3.00;;;;;;;;;;5014252;28;20101;-69
2023/09/28 14:29:11;;;;;;;6.67;3.07;;;;;;;;;;5014241;28;20033;-69
2023/09/28 14:31:36;;;;;;;8.88;4.00;;;;;;;;;;5014170;28;20022;-69
2023/09/28 14:34:02;;;;;;;6.75;3.47;;;;;;;;;;5014102;28;20067;-69
2023/09/28 14:36:28;;;;;;;10.05;3.83;;;;;;;;;;5014177;28;20445;-69
2023/09/28 14:38:53;;;;;;;11.30;3.00;;;;;;;;;;5014338;28;20072;-69
2023/09/28 14:41:19;;;;;;;5.82;3.05;;;;;;;;;;5014290;28;20366;-69
2023/09/28 14:43:47;;;;;;;6.35;3.15;;;;;;;;;;5012119;28;20022;-69
2023/09/28 14:46:13;;;;;;;6.57;3.10;;;;;;;;;;5012120;28;20109;-69
2023/09/28 14:48:38;;;;;;;5.15;2.92;;;;;;;;;;5013532;28;20101;-69
2023/09/28 14:51:04;;;;;;;7.50;3.17;;;;;;;;;;5013204;28;20029;-69
2023/09/28 14:53:29;;;;;;;9.63;3.20;;;;;;;;;;5013620;28;20022;-69
2023/09/28 14:55:55;;;;;;;8.77;3.53;;;;;;;;;;5013653;28;20473;-69
2023/09/28 14:58:20;;;;;;;8.60;3.67;;;;;;;;;;5013418;28;20081;-69
2023/09/28 15:00:45;;;;;;;8.80;3.73;;;;;;;;;;5013302;28;20628;-69
2023/09/28 15:03:11;;;;;;;7.38;3.05;;;;;;;;;;5013544;28;20263;-69
2023/09/28 15:05:36;;;;;;;7.07;3.78;;;;;;;;;;5013141;28;20119;-69
2023/09/28 15:08:02;;;;;;;6.30;3.05;;;;;;;;;;5005254;28;20030;-69
2023/09/28 15:10:28;;;;;;;7.85;3.38;;;;;;;;;;5013230;28;20485;-69
2023/09/28 15:12:53;;;;;;;9.77;3.10;;;;;;;;;;5012960;28;20069;-69
2023/09/28 15:15:19;;;;;;;4.95;2.97;;;;;;;;;;5012853;28;20018;-69
2023/09/28 15:17:44;;;;;;;9.05;3.28;;;;;;;;;;5013946;28;20018;-66
2023/09/28 15:20:09;;;;;;;11.23;3.77;;;;;;;;;;5013580;28;20018;-66
2023/09/28 15:22:35;;;;;;;6.97;3.50;;;;;;;;;;5013766;28;20040;-66
2023/09/28 15:25:00;;;;;;;5.95;3.30;;;;;;;;;;5013765;28;20101;-66
2023/09/28 15:27:25;;;;;;;13.73;3.58;;;;;;;;;;5013529;28;20026;-66
2023/09/28 15:29:51;;;;;;;14.50;3.83;;;;;;;;;;5013542;28;20406;-66
2023/09/28 15:32:16;;;;;;;5.90;3.38;;;;;;;;;;5013387;28;20032;-66
2023/09/28 15:34:41;;;;;;;7.70;3.37;;;;;;;;;;5013419;28;20101;-66
2023/09/28 15:37:07;;;;;;;6.25;3.47;;;;;;;;;;5013617;28;20443;-66
2023/09/28 15:39:32;;;;;;;9.18;4.30;;;;;;;;;;5013403;28;20025;-66
2023/09/28 15:41:58;;;;;;;7.63;3.15;;;;;;;;;;5013401;28;20045;-66
2023/09/28 15:44:23;;;;;;;9.03;3.47;;;;;;;;;;5013355;28;20026;-66
2023/09/28 15:46:49;;;;;;;5.93;3.43;;;;;;;;;;5013376;28;20252;-66
2023/09/28 15:49:14;;;;;;;7.60;4.05;;;;;;;;;;5013530;28;20104;-66
2023/09/28 15:51:39;;;;;;;9.15;3.60;;;;;;;;;;5013453;28;20401;-66
2023/09/28 15:54:05;;;;;;;8.10;3.53;;;;;;;;;;5013162;28;20105;-66
2023/09/28 15:56:30;;;;;;;6.78;3.55;;;;;;;;;;5013491;28;20037;-66
2023/09/28 15:58:55;;;;;;;8.03;3.90;;;;;;;;;;5013168;28;20520;-66
2023/09/28 16:01:20;;;;;;;7.68;3.17;;;;;;;;;;5013164;28;20026;-66
2023/09/28 16:03:47;;;;;;;5.07;3.33;;;;;;;;;;5013240;28;20056;-66
2023/09/28 16:06:12;;;;;;;8.48;3.47;;;;;;;;;;5012937;28;20295;-66
2023/09/28 16:08:37;;;;;;;7.10;3.27;;;;;;;;;;5013096;28;20068;-66
2023/09/28 16:11:02;;;;;;;7.47;4.07;;;;;;;;;;5013049;28;20313;-66
2023/09/28 16:13:28;;;;;;;7.78;3.22;;;;;;;;;;5013258;28;20084;-66
2023/09/28 16:15:53;;;;;;;6.50;3.60;;;;;;;;;;5013279;28;20022;-66
2023/09/28 16:18:18;;;;;;;10.15;3.42;;;;;;;;;;5013252;28;20612;-66
2023/09/28 16:20:43;;;;;;;8.17;3.90;;;;;;;;;;5013019;28;20021;-66
2023/09/28 16:23:09;;;;;;;10.00;4.10;;;;;;;;;;5014905;28;20033;-66
2023/09/28 16:25:34;;;;;;;11.25;3.35;;;;;;;;;;5016840;28;20025;-66
2023/09/28 16:27:59;;;;;;;6.93;3.85;;;;;;;;;;5016588;28;20137;-76
2023/09/28 16:30:26;;;;;;;8.77;3.80;;;;;;;;;;5016530;28;20026;-66
2023/09/28 16:32:51;;;;;;;8.82;3.67;;;;;;;;;;5015174;28;20285;-66
2023/09/28 16:35:16;;;;;;;9.65;3.47;;;;;;;;;;5016189;28;20448;-66
2023/09/28 16:37:42;;;;;;;6.83;3.33;;;;;;;;;;5015976;28;20018;-66
2023/09/28 16:40:07;;;;;;;31.33;6.30;;;;;;;;;;5015974;28;20030;-66
2023/09/28 16:42:32;;;;;;;11.50;4.43;;;;;;;;;;5015866;28;20358;-66
2023/09/28 16:44:58;;;;;;;14.20;4.20;;;;;;;;;;5010997;28;20044;-75
2023/09/28 16:47:23;;;;;;;13.60;3.88;;;;;;;;;;5013733;28;20105;-69
2023/09/28 16:49:48;;;;;;;12.27;4.53;;;;;;;;;;5015691;28;20034;-69
2023/09/28 16:52:13;;;;;;;17.17;4.72;;;;;;;;;;5015449;28;20050;-69
2023/09/28 16:54:39;;;;;;;11.67;4.10;;;;;;;;;;5015445;28;20026;-69
2023/09/28 16:57:04;;;;;;;7.90;3.60;;;;;;;;;;5014644;28;20305;-68
2023/09/28 16:59:29;;;;;;;9.50;4.50;;;;;;;;;;5015336;28;20342;-69
2023/09/28 17:01:54;;;;;;;12.83;4.27;;;;;;;;;;5015285;28;20034;-69
2023/09/28 17:04:20;;;;;;;6.18;3.92;;;;;;;;;;5015493;28;20033;-69
2023/09/28 17:06:46;;;;;;;9.10;3.95;;;;;;;;;;5015294;28;20038;-69
2023/09/28 17:09:12;;;;;;;8.73;3.80;;;;;;;;;;5015216;28;20030;-75
2023/09/28 17:11:38;;;;;;;7.20;3.65;;;;;;;;;;5015174;28;20524;-74
2023/09/28 17:14:03;;;;;;;10.73;4.10;;;;;;;;;;5015074;28;20034;-74
2023/09/28 17:16:28;;;;;;;7.80;4.20;;;;;;;;;;5014036;28;20025;-74
2023/09/28 17:18:54;;;;;;;12.82;4.75;;;;;;;;;;5015268;28;20021;-68
2023/09/28 17:21:19;;;;;;;8.35;4.50;;;;;;;;;;5015161;28;20430;-68
2023/09/28 17:23:45;;;;;;;9.80;4.07;;;;;;;;;;5006621;28;20069;-68
2023/09/28 17:26:10;;;;;;;7.20;4.30;;;;;;;;;;5014323;28;20028;-68
2023/09/28 17:28:35;;;;;;;12.27;4.90;;;;;;;;;;5014350;28;20428;-68
2023/09/28 17:31:01;;;;;;;9.27;4.33;;;;;;;;;;5014042;28;20025;-68
2023/09/28 17:33:26;;;;;;;9.07;4.18;;;;;;;;;;5014129;28;20639;-68
2023/09/28 17:35:51;;;;;;;14.77;4.63;;;;;;;;;;5013308;28;20029;-68
2023/09/28 17:38:17;;;;;;;10.83;5.13;;;;;;;;;;5013597;28;20018;-66
2023/09/28 17:40:43;;;;;;;16.57;5.00;;;;;;;;;;5014429;28;20018;-66
2023/09/28 17:43:08;;;;;;;12.50;5.60;;;;;;;;;;5013952;28;20362;-66
2023/09/28 17:45:35;;;;;;;11.25;4.75;;;;;;;;;;5014498;28;20029;-66
2023/09/28 17:48:00;;;;;;;8.20;4.53;;;;;;;;;;5014243;28;20037;-66
2023/09/28 17:50:25;;;;;;;10.60;4.13;;;;;;;;;;5014138;28;20021;-66
2023/09/28 17:52:50;;;;;;;16.83;5.00;;;;;;;;;;5013483;28;20279;-67
2023/09/28 17:55:16;;;;;;;7.27;4.40;;;;;;;;;;5013849;28;20025;-66
2023/09/28 17:57:41;;;;;;;11.55;5.35;;;;;;;;;;5014303;28;20029;-66
2023/09/28 18:00:08;;;;;;;10.67;4.80;;;;;;;;;;5013912;28;20022;-66
2023/09/28 18:02:33;;;;;;;11.93;5.05;;;;;;;;;;5012906;28;20255;-66
2023/09/28 18:05:01;;;;;;;11.63;4.87;;;;;;;;;;5013488;28;20042;-66
2023/09/28 18:07:26;;;;;;;10.05;4.85;;;;;;;;;;5013548;28;20468;-66
2023/09/28 18:09:51;;;;;;;7.90;5.07;;;;;;;;;;5013539;28;20113;-66
2023/09/28 18:14:56;;;;;;;9.52;4.55;;;;;;;;;;5965409;23;20279;-92
2023/09/28 18:17:22;;;;;;;10.07;4.53;;;;;;;;;;5008182;28;20418;-91
2023/09/28 18:27:54;;;;;;;10.25;5.10;;;;;;;;;;4974948;28;20507;-67
2023/09/28 18:30:19;;;;;;;17.45;5.10;;;;;;;;;;4974828;28;20019;-67
2023/09/28 18:35:47;;;;;;;15.18;5.40;;;;;;;;;;4974673;28;20231;-66